sensor_id;sensor_type;location;lat;lon;timestamp;pressure;altitude;pressure_sealevel;temperature;humidity
64668;BME280;51077;42.716;23.344;2023-11-19T00:01:01;95323.63;;;7.22;49.83
64668;BME280;51077;42.716;23.344;2023-11-19T00:03:26;95324.88;;;7.21;50.16
64668;BME280;51077;42.716;23.344;2023-11-19T00:05:51;95332.34;;;7.21;50.21
64668;BME280;51077;42.716;23.344;2023-11-19T00:08:17;95323.41;;;7.20;50.42
64668;BME280;51077;42.716;23.344;2023-11-19T00:10:42;95326.13;;;7.20;50.38
64668;BME280;51077;42.716;23.344;2023-11-19T00:13:08;95319.19;;;7.19;49.95
64668;BME280;51077;42.716;23.344;2023-11-19T00:15:35;95318.44;;;7.19;50.21
64668;BME280;51077;42.716;23.344;2023-11-19T00:18:00;95323.91;;;7.19;50.13
64668;BME280;51077;42.716;23.344;2023-11-19T00:20:30;95325.09;;;7.18;50.33
64668;BME280;51077;42.716;23.344;2023-11-19T00:22:55;95322.88;;;7.16;50.14
64668;BME280;51077;42.716;23.344;2023-11-19T00:25:21;95323.09;;;7.13;49.94
64668;BME280;51077;42.716;23.344;2023-11-19T00:27:47;95333.28;;;7.12;50.26
64668;BME280;51077;42.716;23.344;2023-11-19T00:30:13;95329.06;;;7.11;50.26
64668;BME280;51077;42.716;23.344;2023-11-19T00:32:40;95324.34;;;7.12;50.09
64668;BME280;51077;42.716;23.344;2023-11-19T00:35:06;95324.34;;;7.12;50.08
64668;BME280;51077;42.716;23.344;2023-11-19T00:37:33;95335.25;;;7.12;50.36
64668;BME280;51077;42.716;23.344;2023-11-19T00:39:58;95336.28;;;7.14;49.91
64668;BME280;51077;42.716;23.344;2023-11-19T00:42:24;95340.97;;;7.14;50.05
64668;BME280;51077;42.716;23.344;2023-11-19T00:44:50;95335.03;;;7.15;49.69
64668;BME280;51077;42.716;23.344;2023-11-19T00:47:16;95333.03;;;7.16;50.15
64668;BME280;51077;42.716;23.344;2023-11-19T00:49:42;95337.28;;;7.17;50.24
64668;BME280;51077;42.716;23.344;2023-11-19T00:52:08;95338.50;;;7.16;50.39
64668;BME280;51077;42.716;23.344;2023-11-19T00:54:33;95331.56;;;7.15;49.76
64668;BME280;51077;42.716;23.344;2023-11-19T00:56:59;95335.78;;;7.16;50.03
64668;BME280;51077;42.716;23.344;2023-11-19T00:59:24;95333.03;;;7.16;49.78
64668;BME280;51077;42.716;23.344;2023-11-19T01:01:50;95338.50;;;7.16;49.88
64668;BME280;51077;42.716;23.344;2023-11-19T01:04:18;95342.72;;;7.17;49.76
64668;BME280;51077;42.716;23.344;2023-11-19T01:06:44;95339.75;;;7.15;50.01
64668;BME280;51077;42.716;23.344;2023-11-19T01:09:09;95340.50;;;7.15;49.68
64668;BME280;51077;42.716;23.344;2023-11-19T01:11:35;95353.41;;;7.15;50.11
64668;BME280;51077;42.716;23.344;2023-11-19T01:14:01;95354.88;;;7.16;50.16
64668;BME280;51077;42.716;23.344;2023-11-19T01:16:26;95354.88;;;7.16;49.88
64668;BME280;51077;42.716;23.344;2023-11-19T01:18:52;95353.41;;;7.15;50.25
64668;BME280;51077;42.716;23.344;2023-11-19T01:21:18;95351.13;;;7.13;49.93
64668;BME280;51077;42.716;23.344;2023-11-19T01:23:44;95355.84;;;7.13;50.01
64668;BME280;51077;42.716;23.344;2023-11-19T01:26:11;95349.16;;;7.14;50.20
64668;BME280;51077;42.716;23.344;2023-11-19T01:28:38;95342.19;;;7.13;50.04
64668;BME280;51077;42.716;23.344;2023-11-19T01:31:05;95346.66;;;7.10;50.06
64668;BME280;51077;42.716;23.344;2023-11-19T01:33:30;95344.16;;;7.07;50.17
64668;BME280;51077;42.716;23.344;2023-11-19T01:35:56;95359.03;;;7.05;50.02
64668;BME280;51077;42.716;23.344;2023-11-19T01:38:24;95363.25;;;7.07;50.09
64668;BME280;51077;42.716;23.344;2023-11-19T01:40:49;95349.34;;;7.04;50.13
64668;BME280;51077;42.716;23.344;2023-11-19T01:43:35;95351.31;;;7.04;49.97
64668;BME280;51077;42.716;23.344;2023-11-19T01:46:01;95343.88;;;7.04;49.95
64668;BME280;51077;42.716;23.344;2023-11-19T01:48:29;95354.06;;;7.04;50.13
64668;BME280;51077;42.716;23.344;2023-11-19T01:50:55;95340.91;;;7.02;50.26
64668;BME280;51077;42.716;23.344;2023-11-19T01:53:22;95356.25;;;7.00;50.06
64668;BME280;51077;42.716;23.344;2023-11-19T01:55:48;95362.22;;;6.98;50.07
64668;BME280;51077;42.716;23.344;2023-11-19T01:58:15;95363.16;;;6.95;49.94
64668;BME280;51077;42.716;23.344;2023-11-19T02:00:41;95365.66;;;6.93;50.08
64668;BME280;51077;42.716;23.344;2023-11-19T02:03:07;95352.22;;;6.90;50.08
64668;BME280;51077;42.716;23.344;2023-11-19T02:05:33;95360.13;;;6.88;50.17
64668;BME280;51077;42.716;23.344;2023-11-19T02:08:00;95355.19;;;6.86;49.78
64668;BME280;51077;42.716;23.344;2023-11-19T02:10:26;95342.03;;;6.85;50.03
64668;BME280;51077;42.716;23.344;2023-11-19T02:12:51;95342.50;;;6.83;49.87
64668;BME280;51077;42.716;23.344;2023-11-19T02:15:17;95346.94;;;6.80;49.69
64668;BME280;51077;42.716;23.344;2023-11-19T02:17:44;95343.94;;;6.78;50.27
64668;BME280;51077;42.716;23.344;2023-11-19T02:20:10;95341.72;;;6.77;50.15
64668;BME280;51077;42.716;23.344;2023-11-19T02:22:40;95348.41;;;6.76;50.11
64668;BME280;51077;42.716;23.344;2023-11-19T02:25:07;95345.41;;;6.74;50.22
64668;BME280;51077;42.716;23.344;2023-11-19T02:27:53;95344.41;;;6.71;50.16
64668;BME280;51077;42.716;23.344;2023-11-19T02:30:21;95351.31;;;6.67;49.91
64668;BME280;51077;42.716;23.344;2023-11-19T02:32:54;95344.59;;;6.62;49.86
64668;BME280;51077;42.716;23.344;2023-11-19T02:35:24;95340.59;;;6.58;50.30
64668;BME280;51077;42.716;23.344;2023-11-19T02:37:51;95337.56;;;6.55;50.30
64668;BME280;51077;42.716;23.344;2023-11-19T02:40:16;95340.06;;;6.53;50.31
64668;BME280;51077;42.716;23.344;2023-11-19T02:42:42;95347.22;;;6.51;50.27
64668;BME280;51077;42.716;23.344;2023-11-19T02:45:08;95340.25;;;6.50;50.55
64668;BME280;51077;42.716;23.344;2023-11-19T02:47:39;95340.47;;;6.46;50.86
64668;BME280;51077;42.716;23.344;2023-11-19T02:50:06;95349.16;;;6.45;50.47
64668;BME280;51077;42.716;23.344;2023-11-19T02:52:39;95344.16;;;6.43;50.11
64668;BME280;51077;42.716;23.344;2023-11-19T02:55:05;95345.41;;;6.42;50.41
64668;BME280;51077;42.716;23.344;2023-11-19T02:57:34;95329.25;;;6.39;50.87
64668;BME280;51077;42.716;23.344;2023-11-19T03:00:00;95335.69;;;6.36;50.67
64668;BME280;51077;42.716;23.344;2023-11-19T03:02:25;95334.16;;;6.35;50.65
64668;BME280;51077;42.716;23.344;2023-11-19T03:04:59;95351.97;;;6.30;50.71
64668;BME280;51077;42.716;23.344;2023-11-19T03:07:25;95346.25;;;6.28;50.88
64668;BME280;51077;42.716;23.344;2023-11-19T03:09:50;95347.00;;;6.28;50.98
64668;BME280;51077;42.716;23.344;2023-11-19T03:12:16;95350.22;;;6.27;51.10
64668;BME280;51077;42.716;23.344;2023-11-19T03:14:41;95366.56;;;6.27;50.81
64668;BME280;51077;42.716;23.344;2023-11-19T03:17:07;95367.78;;;6.26;50.87
64668;BME280;51077;42.716;23.344;2023-11-19T03:19:34;95360.09;;;6.24;51.26
64668;BME280;51077;42.716;23.344;2023-11-19T03:22:01;95353.91;;;6.24;50.84
64668;BME280;51077;42.716;23.344;2023-11-19T03:24:27;95366.03;;;6.23;50.95
64668;BME280;51077;42.716;23.344;2023-11-19T03:26:53;95357.38;;;6.24;50.82
64668;BME280;51077;42.716;23.344;2023-11-19T03:29:18;95345.97;;;6.26;50.69
64668;BME280;51077;42.716;23.344;2023-11-19T03:31:44;95352.47;;;6.28;50.79
64668;BME280;51077;42.716;23.344;2023-11-19T03:34:12;95351.72;;;6.28;51.11
64668;BME280;51077;42.716;23.344;2023-11-19T03:36:38;95356.41;;;6.27;50.76
64668;BME280;51077;42.716;23.344;2023-11-19T03:39:03;95359.16;;;6.27;50.44
64668;BME280;51077;42.716;23.344;2023-11-19T03:41:29;95362.63;;;6.28;50.88
64668;BME280;51077;42.716;23.344;2023-11-19T03:43:54;95359.88;;;6.28;50.57
64668;BME280;51077;42.716;23.344;2023-11-19T03:46:21;95363.84;;;6.27;50.45
64668;BME280;51077;42.716;23.344;2023-11-19T03:48:47;95370.50;;;6.26;50.61
64668;BME280;51077;42.716;23.344;2023-11-19T03:51:13;95378.69;;;6.26;50.89
64668;BME280;51077;42.716;23.344;2023-11-19T03:53:44;95393.53;;;6.25;50.53
64668;BME280;51077;42.716;23.344;2023-11-19T03:56:10;95394.78;;;6.24;50.67
64668;BME280;51077;42.716;23.344;2023-11-19T03:58:36;95390.06;;;6.24;50.69
64668;BME280;51077;42.716;23.344;2023-11-19T04:01:04;95390.06;;;6.24;50.62
64668;BME280;51077;42.716;23.344;2023-11-19T04:03:29;95400.97;;;6.24;50.88
64668;BME280;51077;42.716;23.344;2023-11-19T04:05:55;95404.94;;;6.23;50.36
64668;BME280;51077;42.716;23.344;2023-11-19T04:08:22;95399.00;;;6.25;50.69
64668;BME280;51077;42.716;23.344;2023-11-19T04:10:47;95405.69;;;6.24;50.70
64668;BME280;51077;42.716;23.344;2023-11-19T04:13:13;95418.06;;;6.25;50.77
64668;BME280;51077;42.716;23.344;2023-11-19T04:15:39;95416.09;;;6.25;50.55
64668;BME280;51077;42.716;23.344;2023-11-19T04:18:04;95417.13;;;6.28;50.78
64668;BME280;51077;42.716;23.344;2023-11-19T04:20:30;95428.28;;;6.30;50.33
64668;BME280;51077;42.716;23.344;2023-11-19T04:22:57;95439.94;;;6.30;50.45
64668;BME280;51077;42.716;23.344;2023-11-19T04:25:22;95427.34;;;6.33;50.58
64668;BME280;51077;42.716;23.344;2023-11-19T04:27:51;95415.47;;;6.36;50.42
64668;BME280;51077;42.716;23.344;2023-11-19T04:30:17;95421.19;;;6.38;50.52
64668;BME280;51077;42.716;23.344;2023-11-19T04:32:44;95432.63;;;6.42;50.26
64668;BME280;51077;42.716;23.344;2023-11-19T04:35:10;95428.66;;;6.43;50.49
64668;BME280;51077;42.716;23.344;2023-11-19T04:37:36;95426.97;;;6.46;50.50
64668;BME280;51077;42.716;23.344;2023-11-19T04:40:03;95429.69;;;6.46;50.10
64668;BME280;51077;42.716;23.344;2023-11-19T04:42:28;95437.13;;;6.45;49.95
64668;BME280;51077;42.716;23.344;2023-11-19T04:44:55;95433.19;;;6.46;50.16
64668;BME280;51077;42.716;23.344;2023-11-19T04:47:21;95439.13;;;6.45;50.38
64668;BME280;51077;42.716;23.344;2023-11-19T04:49:46;95434.88;;;6.44;50.62
64668;BME280;51077;42.716;23.344;2023-11-19T04:52:12;95432.91;;;6.44;50.02
64668;BME280;51077;42.716;23.344;2023-11-19T04:54:41;95437.88;;;6.46;50.33
64668;BME280;51077;42.716;23.344;2023-11-19T04:57:08;95440.59;;;6.46;50.08
64668;BME280;51077;42.716;23.344;2023-11-19T04:59:36;95447.41;;;6.56;53.96
64668;BME280;51077;42.716;23.344;2023-11-19T05:02:02;95441.72;;;6.60;53.64
64668;BME280;51077;42.716;23.344;2023-11-19T05:04:29;95453.66;;;6.62;54.15
64668;BME280;51077;42.716;23.344;2023-11-19T05:06:55;95472.28;;;6.64;53.76
64668;BME280;51077;42.716;23.344;2023-11-19T05:09:20;95472.00;;;6.62;53.61
64668;BME280;51077;42.716;23.344;2023-11-19T05:11:45;95477.94;;;6.60;53.15
64668;BME280;51077;42.716;23.344;2023-11-19T05:14:11;95470.25;;;6.59;52.79
64668;BME280;51077;42.716;23.344;2023-11-19T05:16:39;95473.91;;;6.55;52.64
64668;BME280;51077;42.716;23.344;2023-11-19T05:19:05;95476.38;;;6.53;52.18
64668;BME280;51077;42.716;23.344;2023-11-19T05:21:30;95458.25;;;6.50;51.78
64668;BME280;51077;42.716;23.344;2023-11-19T05:23:56;95458.75;;;6.49;51.85
64668;BME280;51077;42.716;23.344;2023-11-19T05:26:23;95467.38;;;6.47;51.63
64668;BME280;51077;42.716;23.344;2023-11-19T05:28:49;95465.88;;;6.46;51.72
64668;BME280;51077;42.716;23.344;2023-11-19T05:31:16;95462.91;;;6.44;51.35
64668;BME280;51077;42.716;23.344;2023-11-19T05:33:42;95474.56;;;6.45;51.11
64668;BME280;51077;42.716;23.344;2023-11-19T05:39:29;95482.25;;;6.46;50.83
64668;BME280;51077;42.716;23.344;2023-11-19T05:41:55;95477.06;;;6.48;50.86
64668;BME280;51077;42.716;23.344;2023-11-19T05:44:20;95457.97;;;6.48;50.58
64668;BME280;51077;42.716;23.344;2023-11-19T05:46:45;95474.63;;;6.50;50.89
64668;BME280;51077;42.716;23.344;2023-11-19T05:49:11;95483.06;;;6.52;50.28
64668;BME280;51077;42.716;23.344;2023-11-19T05:51:38;95477.59;;;6.52;50.33
64668;BME280;51077;42.716;23.344;2023-11-19T05:54:05;95474.88;;;6.52;50.27
64668;BME280;51077;42.716;23.344;2023-11-19T05:56:32;95485.31;;;6.54;50.34
64668;BME280;51077;42.716;23.344;2023-11-19T05:58:58;95479.13;;;6.53;50.17
64668;BME280;51077;42.716;23.344;2023-11-19T06:01:26;95502.41;;;6.54;50.41
64668;BME280;51077;42.716;23.344;2023-11-19T06:03:52;95503.91;;;6.55;50.02
64668;BME280;51077;42.716;23.344;2023-11-19T06:06:18;95494.03;;;6.58;50.32
64668;BME280;51077;42.716;23.344;2023-11-19T06:08:44;95495.31;;;6.63;50.03
64668;BME280;51077;42.716;23.344;2023-11-19T06:11:10;95499.81;;;6.66;50.13
64668;BME280;51077;42.716;23.344;2023-11-19T06:13:43;95510.31;;;6.73;49.35
64668;BME280;51077;42.716;23.344;2023-11-19T06:16:09;95505.63;;;6.79;49.84
64668;BME280;51077;42.716;23.344;2023-11-19T06:18:36;95508.66;;;6.81;49.75
64668;BME280;51077;42.716;23.344;2023-11-19T06:21:02;95507.69;;;6.84;49.58
64668;BME280;51077;42.716;23.344;2023-11-19T06:23:27;95499.75;;;6.86;49.86
64668;BME280;51077;42.716;23.344;2023-11-19T06:25:52;95499.28;;;6.88;49.38
64668;BME280;51077;42.716;23.344;2023-11-19T06:28:18;95510.19;;;6.88;49.42
64668;BME280;51077;42.716;23.344;2023-11-19T06:30:43;95512.16;;;6.87;49.69
64668;BME280;51077;42.716;23.344;2023-11-19T06:33:09;95514.44;;;6.89;49.54
64668;BME280;51077;42.716;23.344;2023-11-19T06:35:37;95491.38;;;6.90;49.12
64668;BME280;51077;42.716;23.344;2023-11-19T06:38:03;95501.06;;;6.91;49.35
64668;BME280;51077;42.716;23.344;2023-11-19T06:40:33;95511.50;;;6.92;49.46
64668;BME280;51077;42.716;23.344;2023-11-19T06:43:00;95496.88;;;6.95;49.01
64668;BME280;51077;42.716;23.344;2023-11-19T06:45:26;95508.06;;;6.97;48.90
64668;BME280;51077;42.716;23.344;2023-11-19T06:47:51;95514.53;;;7.00;49.05
64668;BME280;51077;42.716;23.344;2023-11-19T06:50:17;95524.97;;;7.01;49.04
64668;BME280;51077;42.716;23.344;2023-11-19T06:52:44;95513.09;;;7.04;49.08
64668;BME280;51077;42.716;23.344;2023-11-19T06:55:10;95515.59;;;7.08;48.82
64668;BME280;51077;42.716;23.344;2023-11-19T06:57:36;95502.97;;;7.11;48.74
64668;BME280;51077;42.716;23.344;2023-11-19T07:00:02;95506.72;;;7.13;48.68
64668;BME280;51077;42.716;23.344;2023-11-19T07:02:28;95514.44;;;7.15;48.71
64668;BME280;51077;42.716;23.344;2023-11-19T07:04:53;95513.72;;;7.20;48.88
64668;BME280;51077;42.716;23.344;2023-11-19T07:07:19;95511.00;;;7.20;48.48
64668;BME280;51077;42.716;23.344;2023-11-19T07:09:45;95508.28;;;7.20;48.25
64668;BME280;51077;42.716;23.344;2023-11-19T07:12:13;95531.59;;;7.21;47.96
64668;BME280;51077;42.716;23.344;2023-11-19T07:14:39;95532.34;;;7.21;48.34
64668;BME280;51077;42.716;23.344;2023-11-19T07:17:05;95511.25;;;7.22;47.81
64668;BME280;51077;42.716;23.344;2023-11-19T07:19:31;95526.44;;;7.23;47.97
64668;BME280;51077;42.716;23.344;2023-11-19T07:21:57;95518.97;;;7.23;47.87
64668;BME280;51077;42.716;23.344;2023-11-19T07:24:22;95520.47;;;7.24;47.42
64668;BME280;51077;42.716;23.344;2023-11-19T07:26:48;95518.47;;;7.25;47.80
64668;BME280;51077;42.716;23.344;2023-11-19T07:29:14;95523.44;;;7.26;47.54
64668;BME280;51077;42.716;23.344;2023-11-19T07:31:44;95535.13;;;7.27;47.12
64668;BME280;51077;42.716;23.344;2023-11-19T07:34:10;95555.75;;;7.28;47.27
64668;BME280;51077;42.716;23.344;2023-11-19T07:36:37;95555.75;;;7.28;47.50
64668;BME280;51077;42.716;23.344;2023-11-19T07:39:03;95556.97;;;7.27;47.30
64668;BME280;51077;42.716;23.344;2023-11-19T07:41:30;95553.28;;;7.30;47.29
64668;BME280;51077;42.716;23.344;2023-11-19T07:43:56;95567.47;;;7.34;47.37
64668;BME280;51077;42.716;23.344;2023-11-19T07:46:21;95564.78;;;7.40;46.81
64668;BME280;51077;42.716;23.344;2023-11-19T07:48:47;95552.19;;;7.48;46.99
64668;BME280;51077;42.716;23.344;2023-11-19T07:51:13;95550.50;;;7.56;46.71
64668;BME280;51077;42.716;23.344;2023-11-19T07:53:39;95553.81;;;7.66;46.64
64668;BME280;51077;42.716;23.344;2023-11-19T07:56:06;95564.84;;;7.77;46.31
64668;BME280;51077;42.716;23.344;2023-11-19T07:58:31;95557.69;;;7.85;46.11
64668;BME280;51077;42.716;23.344;2023-11-19T08:00:57;95560.75;;;7.98;46.00
64668;BME280;51077;42.716;23.344;2023-11-19T08:03:22;95560.88;;;8.21;45.54
64668;BME280;51077;42.716;23.344;2023-11-19T08:05:48;95559.38;;;8.63;44.97
64668;BME280;51077;42.716;23.344;2023-11-19T08:08:14;95567.22;;;9.09;43.97
64668;BME280;51077;42.716;23.344;2023-11-19T08:10:40;95566.06;;;9.38;43.65
64668;BME280;51077;42.716;23.344;2023-11-19T08:13:06;95569.06;;;9.68;43.03
64668;BME280;51077;42.716;23.344;2023-11-19T08:15:32;95585.50;;;9.96;42.51
64668;BME280;51077;42.716;23.344;2023-11-19T08:17:58;95575.00;;;10.00;42.07
64668;BME280;51077;42.716;23.344;2023-11-19T08:20:23;95568.03;;;9.99;42.01
64668;BME280;51077;42.716;23.344;2023-11-19T08:22:49;95577.78;;;9.89;41.61
64668;BME280;51077;42.716;23.344;2023-11-19T08:25:14;95576.53;;;9.79;41.83
64668;BME280;51077;42.716;23.344;2023-11-19T08:27:40;95579.50;;;9.70;41.89
64668;BME280;51077;42.716;23.344;2023-11-19T08:30:06;95583.25;;;9.61;41.92
64668;BME280;51077;42.716;23.344;2023-11-19T08:32:32;95579.50;;;9.53;42.10
64668;BME280;51077;42.716;23.344;2023-11-19T08:34:58;95576.03;;;9.41;42.17
64668;BME280;51077;42.716;23.344;2023-11-19T08:37:23;95593.16;;;9.30;42.32
64668;BME280;51077;42.716;23.344;2023-11-19T08:39:50;95595.63;;;9.23;42.29
64668;BME280;51077;42.716;23.344;2023-11-19T08:42:16;95591.91;;;9.15;42.43
64668;BME280;51077;42.716;23.344;2023-11-19T08:44:42;95591.88;;;9.09;42.66
64668;BME280;51077;42.716;23.344;2023-11-19T08:47:12;95582.91;;;9.03;42.72
64668;BME280;51077;42.716;23.344;2023-11-19T08:49:38;95581.88;;;8.95;42.56
64668;BME280;51077;42.716;23.344;2023-11-19T08:52:05;95581.88;;;8.89;42.95
64668;BME280;51077;42.716;23.344;2023-11-19T08:54:32;95591.34;;;8.88;43.03
64668;BME280;51077;42.716;23.344;2023-11-19T08:56:58;95606.25;;;8.87;42.89
64668;BME280;51077;42.716;23.344;2023-11-19T08:59:24;95602.50;;;8.85;43.04
64668;BME280;51077;42.716;23.344;2023-11-19T09:01:50;95584.34;;;8.87;43.05
64668;BME280;51077;42.716;23.344;2023-11-19T09:04:15;95579.13;;;8.89;42.79
64668;BME280;51077;42.716;23.344;2023-11-19T09:06:41;95572.94;;;8.94;42.95
64668;BME280;51077;42.716;23.344;2023-11-19T09:09:08;95574.19;;;8.99;42.58
64668;BME280;51077;42.716;23.344;2023-11-19T09:11:33;95578.69;;;9.07;42.47
64668;BME280;51077;42.716;23.344;2023-11-19T09:13:59;95571.25;;;9.19;42.38
64668;BME280;51077;42.716;23.344;2023-11-19T09:16:24;95563.28;;;9.27;42.34
64668;BME280;51077;42.716;23.344;2023-11-19T09:18:50;95550.84;;;9.26;41.94
64668;BME280;51077;42.716;23.344;2023-11-19T09:21:16;95572.75;;;9.26;42.09
64668;BME280;51077;42.716;23.344;2023-11-19T09:23:41;95578.72;;;9.24;41.94
64668;BME280;51077;42.716;23.344;2023-11-19T09:26:08;95572.50;;;9.24;41.95
64668;BME280;51077;42.716;23.344;2023-11-19T09:28:37;95598.38;;;9.23;42.03
64668;BME280;51077;42.716;23.344;2023-11-19T09:31:02;95589.69;;;9.19;41.73
64668;BME280;51077;42.716;23.344;2023-11-19T09:33:31;95579.44;;;9.14;41.93
64668;BME280;51077;42.716;23.344;2023-11-19T09:35:56;95571.00;;;9.12;41.91
64668;BME280;51077;42.716;23.344;2023-11-19T09:38:23;95571.50;;;9.10;42.10
64668;BME280;51077;42.716;23.344;2023-11-19T09:40:48;95567.97;;;9.10;42.09
64668;BME280;51077;42.716;23.344;2023-11-19T09:43:15;95568.25;;;9.06;42.06
64668;BME280;51077;42.716;23.344;2023-11-19T09:45:50;95552.06;;;9.02;42.04
64668;BME280;51077;42.716;23.344;2023-11-19T09:48:17;95548.31;;;9.00;41.95
64668;BME280;51077;42.716;23.344;2023-11-19T09:50:45;95535.63;;;9.02;41.97
64668;BME280;51077;42.716;23.344;2023-11-19T09:53:12;95517.19;;;9.09;42.04
64668;BME280;51077;42.716;23.344;2023-11-19T09:55:37;95524.44;;;9.17;41.83
64668;BME280;51077;42.716;23.344;2023-11-19T09:58:03;95526.19;;;9.26;41.82
64668;BME280;51077;42.716;23.344;2023-11-19T10:00:30;95520.47;;;9.35;41.44
64668;BME280;51077;42.716;23.344;2023-11-19T10:02:56;95519.00;;;9.45;41.17
64668;BME280;51077;42.716;23.344;2023-11-19T10:05:23;95522.97;;;9.50;40.92
64668;BME280;51077;42.716;23.344;2023-11-19T10:07:50;95515.25;;;9.54;40.93
64668;BME280;51077;42.716;23.344;2023-11-19T10:10:16;95521.47;;;9.66;40.70
64668;BME280;51077;42.716;23.344;2023-11-19T10:12:45;95524.72;;;9.75;40.53
64668;BME280;51077;42.716;23.344;2023-11-19T10:15:21;95506.00;;;9.85;40.67
64668;BME280;51077;42.716;23.344;2023-11-19T10:17:50;95513.97;;;9.94;40.32
64668;BME280;51077;42.716;23.344;2023-11-19T10:20:16;95519.19;;;10.03;40.10
64668;BME280;51077;42.716;23.344;2023-11-19T10:22:41;95515.66;;;10.20;39.83
64668;BME280;51077;42.716;23.344;2023-11-19T10:25:25;95522.13;;;10.22;39.68
64668;BME280;51077;42.716;23.344;2023-11-19T10:27:51;95528.13;;;10.21;39.59
64668;BME280;51077;42.716;23.344;2023-11-19T10:30:38;95515.41;;;10.23;39.48
64668;BME280;51077;42.716;23.344;2023-11-19T10:33:08;95517.31;;;10.51;39.21
64668;BME280;51077;42.716;23.344;2023-11-19T10:35:35;95516.22;;;10.71;38.77
64668;BME280;51077;42.716;23.344;2023-11-19T10:38:13;95510.25;;;10.72;38.71
64668;BME280;51077;42.716;23.344;2023-11-19T10:40:39;95514.91;;;10.83;38.52
64668;BME280;51077;42.716;23.344;2023-11-19T10:43:05;95510.53;;;11.10;38.27
64668;BME280;51077;42.716;23.344;2023-11-19T10:45:33;95521.53;;;11.10;38.06
64668;BME280;51077;42.716;23.344;2023-11-19T10:47:59;95523.56;;;11.04;38.12
64668;BME280;51077;42.716;23.344;2023-11-19T10:50:26;95527.03;;;11.04;38.12
64668;BME280;51077;42.716;23.344;2023-11-19T10:52:56;95529.53;;;11.08;37.89
64668;BME280;51077;42.716;23.344;2023-11-19T10:55:30;95519.41;;;11.27;37.79
64668;BME280;51077;42.716;23.344;2023-11-19T10:58:03;95515.59;;;11.36;37.58
64668;BME280;51077;42.716;23.344;2023-11-19T11:00:51;95520.13;;;11.33;37.48
64668;BME280;51077;42.716;23.344;2023-11-19T11:03:22;95503.91;;;11.30;37.60
64668;BME280;51077;42.716;23.344;2023-11-19T11:05:53;95513.13;;;11.32;37.36
64668;BME280;51077;42.716;23.344;2023-11-19T11:08:20;95500.44;;;11.60;37.40
64668;BME280;51077;42.716;23.344;2023-11-19T11:10:53;95493.06;;;11.73;37.08
64668;BME280;51077;42.716;23.344;2023-11-19T11:13:19;95477.78;;;12.27;36.19
64668;BME280;51077;42.716;23.344;2023-11-19T11:15:45;95484.38;;;12.62;35.87
64668;BME280;51077;42.716;23.344;2023-11-19T11:18:12;95477.47;;;12.74;35.40
64668;BME280;51077;42.716;23.344;2023-11-19T11:20:39;95478.72;;;12.92;35.31
64668;BME280;51077;42.716;23.344;2023-11-19T11:34:04;95476.53;;;14.26;33.28
64668;BME280;51077;42.716;23.344;2023-11-19T11:39:18;95478.28;;;15.24;32.24
64668;BME280;51077;42.716;23.344;2023-11-19T11:41:46;95472.38;;;15.83;31.81
64668;BME280;51077;42.716;23.344;2023-11-19T11:44:12;95471.84;;;16.42;31.35
64668;BME280;51077;42.716;23.344;2023-11-19T11:49:04;95456.88;;;17.55;30.47
64668;BME280;51077;42.716;23.344;2023-11-19T11:57:08;95458.72;;;19.25;29.79
64668;BME280;51077;42.716;23.344;2023-11-19T11:59:46;95462.19;;;19.66;29.13
64668;BME280;51077;42.716;23.344;2023-11-19T12:02:14;95468.59;;;20.01;28.73
64668;BME280;51077;42.716;23.344;2023-11-19T12:04:41;95468.81;;;20.38;28.19
64668;BME280;51077;42.716;23.344;2023-11-19T12:07:33;95463.09;;;20.71;27.71
64668;BME280;51077;42.716;23.344;2023-11-19T12:10:06;95447.28;;;21.00;27.21
64668;BME280;51077;42.716;23.344;2023-11-19T12:12:33;95441.72;;;21.27;26.89
64668;BME280;51077;42.716;23.344;2023-11-19T12:15:03;95438.31;;;21.46;26.41
64668;BME280;51077;42.716;23.344;2023-11-19T12:17:42;95437.53;;;21.73;26.11
64668;BME280;51077;42.716;23.344;2023-11-19T12:20:10;95428.75;;;21.86;25.83
64668;BME280;51077;42.716;23.344;2023-11-19T12:22:41;95421.88;;;22.06;25.48
64668;BME280;51077;42.716;23.344;2023-11-19T12:25:08;95422.50;;;22.24;25.51
64668;BME280;51077;42.716;23.344;2023-11-19T12:27:43;95420.34;;;22.42;25.27
64668;BME280;51077;42.716;23.344;2023-11-19T12:30:10;95422.22;;;22.59;24.84
64668;BME280;51077;42.716;23.344;2023-11-19T12:32:44;95420.78;;;22.77;24.75
64668;BME280;51077;42.716;23.344;2023-11-19T12:35:11;95413.09;;;22.88;24.65
64668;BME280;51077;42.716;23.344;2023-11-19T12:37:44;95408.22;;;22.98;24.58
64668;BME280;51077;42.716;23.344;2023-11-19T12:40:17;95399.38;;;23.01;24.48
64668;BME280;51077;42.716;23.344;2023-11-19T12:42:44;95400.13;;;23.02;24.57
64668;BME280;51077;42.716;23.344;2023-11-19T12:45:10;95389.66;;;23.02;24.50
64668;BME280;51077;42.716;23.344;2023-11-19T12:47:45;95392.31;;;23.00;24.45
64668;BME280;51077;42.716;23.344;2023-11-19T12:50:13;95394.09;;;22.86;24.37
64668;BME280;51077;42.716;23.344;2023-11-19T12:52:39;95386.00;;;22.71;24.74
64668;BME280;51077;42.716;23.344;2023-11-19T12:55:23;95394.25;;;22.59;25.40
64668;BME280;51077;42.716;23.344;2023-11-19T12:57:50;95386.59;;;22.50;25.10
64668;BME280;51077;42.716;23.344;2023-11-19T13:00:20;95382.50;;;22.51;24.83
64668;BME280;51077;42.716;23.344;2023-11-19T13:02:47;95373.22;;;22.48;25.20
64668;BME280;51077;42.716;23.344;2023-11-19T13:05:30;95369.09;;;22.49;24.94
64668;BME280;51077;42.716;23.344;2023-11-19T13:08:03;95375.59;;;22.42;24.85
64668;BME280;51077;42.716;23.344;2023-11-19T13:10:31;95372.34;;;22.36;24.81
64668;BME280;51077;42.716;23.344;2023-11-19T13:13:05;95363.09;;;22.33;25.09
64668;BME280;51077;42.716;23.344;2023-11-19T13:15:32;95369.56;;;22.26;25.25
64668;BME280;51077;42.716;23.344;2023-11-19T13:17:58;95373.50;;;22.23;25.17
64668;BME280;51077;42.716;23.344;2023-11-19T13:20:24;95359.81;;;22.08;25.08
64668;BME280;51077;42.716;23.344;2023-11-19T13:23:04;95354.66;;;21.95;24.90